Time;durP1;ratioP1;P1;durP2;ratioP2;P2;SDS_P1;SDS_P2;PMS_P1;PMS_P2;Temp;Humidity;BMP_temperature;BMP_pressure;BME280_temperature;BME280_humidity;BME280_pressure;Samples;Min_cycle;Max_cycle;Signal;HPM_P1;HPM_P2
2023/10/14 00:00:27;;;;;;;11.40;6.82;;;;;;;;;;6248434;28;20049;-77
2023/10/14 00:03:32;;;;;;;18.90;7.65;;;;;;;;;;6248394;28;20361;-76
2023/10/14 00:06:38;;;;;;;10.82;6.93;;;;;;;;;;6246249;28;20042;-76
2023/10/14 00:09:43;;;;;;;15.48;7.45;;;;;;;;;;6246548;28;20095;-76
2023/10/14 00:12:52;;;;;;;14.15;8.38;;;;;;;;;;6251458;28;20089;-76
2023/10/14 00:15:55;;;;;;;15.52;7.80;;;;;;;;;;6250738;28;20049;-76
2023/10/14 00:18:58;;;;;;;73.40;41.67;;;;;;;;;;6252311;28;20111;-76
2023/10/14 00:22:00;;;;;;;101.55;59.85;;;;;;;;;;6254224;28;20049;-76
2023/10/14 00:25:02;;;;;;;43.42;26.23;;;;;;;;;;6254119;28;20045;-77
2023/10/14 00:28:12;;;;;;;50.35;30.98;;;;;;;;;;6252411;28;20140;-78
2023/10/14 00:31:15;;;;;;;61.45;38.45;;;;;;;;;;6257064;28;20045;-78
2023/10/14 00:34:17;;;;;;;;;;;;;;;;;;6259000;28;20073;-78
2023/10/14 00:37:19;;;;;;;12.23;9.40;;;;;;;;;;6253091;28;19921;-75
2023/10/14 00:40:23;;;;;;;13.50;8.20;;;;;;;;;;6246413;28;20057;-77
2023/10/14 00:43:25;;;;;;;13.43;8.52;;;;;;;;;;6253406;28;20225;-75
2023/10/14 00:46:31;;;;;;;13.85;8.82;;;;;;;;;;6247357;28;20246;-76
2023/10/14 00:49:35;;;;;;;9.45;7.72;;;;;;;;;;6244533;28;20061;-76
2023/10/14 00:52:39;;;;;;;10.75;7.00;;;;;;;;;;6252509;28;20204;-76
2023/10/14 00:55:54;;;;;;;12.00;7.07;;;;;;;;;;6252349;28;20057;-78
2023/10/14 00:58:59;;;;;;;13.68;7.75;;;;;;;;;;6227213;28;20042;-77
2023/10/14 01:02:02;;;;;;;11.05;7.10;;;;;;;;;;6223200;28;20053;-78
2023/10/14 01:05:07;;;;;;;18.40;7.43;;;;;;;;;;6223038;28;20121;-78
2023/10/14 01:08:11;;;;;;;10.95;6.93;;;;;;;;;;6226871;28;20105;-78
2023/10/14 01:11:13;;;;;;;17.95;6.80;;;;;;;;;;6228371;28;20080;-75
2023/10/14 01:14:23;;;;;;;10.32;7.03;;;;;;;;;;6244323;28;20120;-75
2023/10/14 01:17:29;;;;;;;14.45;8.00;;;;;;;;;;6238055;28;20046;-75
2023/10/14 01:20:37;;;;;;;19.17;10.38;;;;;;;;;;6226420;28;20065;-78
2023/10/14 01:23:45;;;;;;;12.18;7.82;;;;;;;;;;6230876;28;20120;-76
2023/10/14 01:26:53;;;;;;;10.35;7.30;;;;;;;;;;6243513;28;20061;-76
2023/10/14 01:29:55;;;;;;;14.38;7.70;;;;;;;;;;6252136;28;20091;-76
2023/10/14 01:33:08;;;;;;;11.75;7.75;;;;;;;;;;6252978;28;20045;-76
2023/10/14 01:36:11;;;;;;;12.87;8.17;;;;;;;;;;6247398;28;20050;-76
2023/10/14 01:39:21;;;;;;;20.48;7.70;;;;;;;;;;6255542;28;20111;-75
2023/10/14 01:42:23;;;;;;;17.73;8.93;;;;;;;;;;6250923;28;20058;-76
2023/10/14 01:45:28;;;;;;;14.10;8.57;;;;;;;;;;6252684;28;20339;-76
2023/10/14 01:48:31;;;;;;;14.70;8.55;;;;;;;;;;6252477;28;20045;-76
2023/10/14 01:51:33;;;;;;;15.07;8.65;;;;;;;;;;6247558;28;20229;-76
2023/10/14 01:54:39;;;;;;;14.52;8.43;;;;;;;;;;6247587;28;20061;-77
2023/10/14 01:57:42;;;;;;;12.55;8.70;;;;;;;;;;6252463;28;20053;-76
2023/10/14 02:00:46;;;;;;;16.00;8.80;;;;;;;;;;6250617;28;20390;-76
2023/10/14 02:03:48;;;;;;;12.65;8.30;;;;;;;;;;6246368;28;20053;-76
2023/10/14 02:07:04;;;;;;;13.93;8.75;;;;;;;;;;6254051;28;20057;-77
2023/10/14 02:10:12;;;;;;;12.07;8.18;;;;;;;;;;6249407;28;20046;-76
2023/10/14 02:13:16;;;;;;;13.23;8.68;;;;;;;;;;6251018;28;20091;-77
2023/10/14 02:16:23;;;;;;;14.77;8.00;;;;;;;;;;6252349;28;20057;-76
2023/10/14 02:19:36;;;;;;;11.45;7.88;;;;;;;;;;6249534;28;20068;-76
2023/10/14 02:22:39;;;;;;;12.07;8.35;;;;;;;;;;6253978;28;20067;-77
2023/10/14 02:25:42;;;;;;;10.23;7.95;;;;;;;;;;6249936;28;20076;-76
2023/10/14 02:28:46;;;;;;;14.02;7.95;;;;;;;;;;6247279;28;20250;-76
2023/10/14 02:31:48;;;;;;;12.05;7.65;;;;;;;;;;6252333;28;20037;-76
2023/10/14 02:34:51;;;;;;;11.63;7.82;;;;;;;;;;6220778;28;20368;-76
2023/10/14 02:37:54;;;;;;;11.45;7.63;;;;;;;;;;6223659;28;20050;-76
2023/10/14 02:40:57;;;;;;;10.65;7.72;;;;;;;;;;6233584;28;20042;-75
2023/10/14 02:44:18;;;;;;;9.75;7.53;;;;;;;;;;6226254;28;20062;-76
2023/10/14 02:47:20;;;;;;;12.23;7.28;;;;;;;;;;6224132;28;20054;-75
2023/10/14 02:50:24;;;;;;;11.43;7.97;;;;;;;;;;6229023;28;20392;-77
2023/10/14 02:53:28;;;;;;;9.90;7.50;;;;;;;;;;6229877;28;20131;-76
2023/10/14 02:56:45;;;;;;;13.57;7.13;;;;;;;;;;6225439;28;20393;-76
2023/10/14 02:59:48;;;;;;;9.30;6.35;;;;;;;;;;6232253;28;20091;-76
2023/10/14 03:02:54;;;;;;;9.25;6.75;;;;;;;;;;6222167;28;20133;-76
2023/10/14 03:06:05;;;;;;;9.00;6.57;;;;;;;;;;6227410;28;20042;-76
2023/10/14 03:09:09;;;;;;;11.35;7.13;;;;;;;;;;6225028;28;20323;-76
2023/10/14 03:12:15;;;;;;;;;;;;;;;;;;6230451;28;20108;-77
2023/10/14 03:15:22;;;;;;;9.48;6.68;;;;;;;;;;6229383;28;19917;-75
2023/10/14 03:18:36;;;;;;;13.32;7.70;;;;;;;;;;6234227;28;20053;-76
2023/10/14 03:21:53;;;;;;;11.85;7.10;;;;;;;;;;6232960;28;20062;-76
2023/10/14 03:25:04;;;;;;;11.80;6.47;;;;;;;;;;6230505;28;20049;-77
2023/10/14 03:28:12;;;;;;;9.10;6.60;;;;;;;;;;6231168;28;20117;-76
2023/10/14 03:31:17;;;;;;;9.13;6.85;;;;;;;;;;6224310;28;20105;-76
2023/10/14 03:34:19;;;;;;;8.35;6.43;;;;;;;;;;6227390;28;20049;-76
2023/10/14 03:37:25;;;;;;;11.60;7.13;;;;;;;;;;6228712;28;20061;-76
2023/10/14 03:40:51;;;;;;;10.65;6.90;;;;;;;;;;6236412;28;20041;-77
2023/10/14 03:43:58;;;;;;;10.15;6.95;;;;;;;;;;6254168;28;20045;-76
2023/10/14 03:47:00;;;;;;;14.70;7.07;;;;;;;;;;6231565;28;20049;-76
2023/10/14 03:50:02;;;;;;;15.55;7.80;;;;;;;;;;6225736;28;20065;-76
2023/10/14 03:53:05;;;;;;;14.55;7.68;;;;;;;;;;6226913;28;20054;-76
2023/10/14 03:56:07;;;;;;;13.27;6.75;;;;;;;;;;6233632;28;25729;-77
2023/10/14 03:59:12;;;;;;;12.07;7.40;;;;;;;;;;6253218;28;20235;-76
2023/10/14 04:02:19;;;;;;;16.85;7.47;;;;;;;;;;6220094;28;20041;-77
2023/10/14 04:05:21;;;;;;;11.05;7.22;;;;;;;;;;6228855;28;20065;-77
2023/10/14 04:08:30;;;;;;;12.43;7.57;;;;;;;;;;6225578;28;20462;-76
2023/10/14 04:11:38;;;;;;;17.00;7.50;;;;;;;;;;6224685;28;20108;-76
2023/10/14 04:14:41;;;;;;;13.00;7.28;;;;;;;;;;6239691;28;20083;-76
2023/10/14 04:17:47;;;;;;;12.55;7.53;;;;;;;;;;6241686;28;20081;-77
2023/10/14 04:20:58;;;;;;;11.70;8.75;;;;;;;;;;6240043;28;20054;-76
2023/10/14 04:24:08;;;;;;;13.90;8.45;;;;;;;;;;6243009;28;20046;-76
2023/10/14 04:27:21;;;;;;;14.20;8.23;;;;;;;;;;6249906;28;20330;-76
2023/10/14 04:30:32;;;;;;;12.00;8.10;;;;;;;;;;6236120;28;20117;-75
2023/10/14 04:33:44;;;;;;;12.45;8.48;;;;;;;;;;6226792;28;20045;-76
2023/10/14 04:36:54;;;;;;;12.70;9.93;;;;;;;;;;6238023;28;20054;-75
2023/10/14 04:39:59;;;;;;;16.13;9.88;;;;;;;;;;6230100;28;20049;-77
2023/10/14 04:43:02;;;;;;;17.63;9.52;;;;;;;;;;6226352;28;20068;-74
2023/10/14 04:46:13;;;;;;;13.85;8.60;;;;;;;;;;6226755;28;20050;-76
2023/10/14 04:49:17;;;;;;;15.75;9.25;;;;;;;;;;6228139;28;20065;-76
2023/10/14 04:52:19;;;;;;;13.75;9.20;;;;;;;;;;6225472;28;20173;-77
2023/10/14 04:55:32;;;;;;;12.25;8.88;;;;;;;;;;6233986;28;20112;-77
2023/10/14 04:58:33;;;;;;;14.43;9.25;;;;;;;;;;6225736;28;20243;-77
2023/10/14 05:01:41;;;;;;;22.55;9.10;;;;;;;;;;6226551;28;20120;-77
2023/10/14 05:04:43;;;;;;;15.00;9.15;;;;;;;;;;6248800;28;20099;-74
2023/10/14 05:07:45;;;;;;;12.77;9.35;;;;;;;;;;6253724;28;20052;-76
2023/10/14 05:10:50;;;;;;;14.90;10.10;;;;;;;;;;6252430;28;20120;-77
2023/10/14 05:14:07;;;;;;;17.33;9.63;;;;;;;;;;6252949;28;20120;-77
2023/10/14 05:17:16;;;;;;;23.95;10.63;;;;;;;;;;6252665;28;20045;-77
2023/10/14 05:20:27;;;;;;;16.00;9.77;;;;;;;;;;6252525;28;20049;-78
2023/10/14 05:23:31;;;;;;;24.95;10.27;;;;;;;;;;6250418;28;20050;-77
2023/10/14 05:26:36;;;;;;;25.92;11.13;;;;;;;;;;6246313;28;20050;-75
2023/10/14 05:29:37;;;;;;;26.73;11.23;;;;;;;;;;6249368;28;20108;-75
2023/10/14 05:32:43;;;;;;;23.63;11.35;;;;;;;;;;6244355;28;20053;-75
2023/10/14 05:35:45;;;;;;;17.73;9.93;;;;;;;;;;6250802;28;20054;-75
2023/10/14 05:38:47;;;;;;;20.35;11.40;;;;;;;;;;6251428;28;20045;-75
2023/10/14 05:41:49;;;;;;;25.35;11.95;;;;;;;;;;6253179;28;20041;-78
2023/10/14 05:44:57;;;;;;;24.65;11.95;;;;;;;;;;6248670;28;20053;-76
2023/10/14 05:48:00;;;;;;;24.52;12.02;;;;;;;;;;6247920;28;20046;-76
2023/10/14 05:51:02;;;;;;;23.27;11.85;;;;;;;;;;6254446;28;20107;-76
2023/10/14 05:54:04;;;;;;;21.15;11.43;;;;;;;;;;6253278;28;20049;-77
2023/10/14 05:57:08;;;;;;;22.00;11.98;;;;;;;;;;6253280;28;20049;-76
2023/10/14 06:00:21;;;;;;;19.58;11.05;;;;;;;;;;6250840;28;20045;-76
2023/10/14 06:03:24;;;;;;;29.15;11.88;;;;;;;;;;6245873;28;20060;-76
2023/10/14 06:06:26;;;;;;;21.75;11.77;;;;;;;;;;6245078;28;20140;-76
2023/10/14 06:09:31;;;;;;;21.67;11.82;;;;;;;;;;6253836;28;20233;-79
2023/10/14 06:12:33;;;;;;;22.38;12.98;;;;;;;;;;6253453;28;20108;-80
2023/10/14 06:15:38;;;;;;;92.28;16.95;;;;;;;;;;6256562;28;20050;-75
2023/10/14 06:18:43;;;;;;;36.75;13.43;;;;;;;;;;6252120;28;20053;-76
2023/10/14 06:21:45;;;;;;;307.70;31.40;;;;;;;;;;6248828;28;20538;-74
2023/10/14 06:24:47;;;;;;;87.03;18.20;;;;;;;;;;6247486;28;20093;-76
2023/10/14 06:27:49;;;;;;;25.65;12.38;;;;;;;;;;6253119;28;20275;-75
2023/10/14 06:30:51;;;;;;;24.90;13.85;;;;;;;;;;6250489;28;20049;-75
2023/10/14 06:33:55;;;;;;;61.63;51.80;;;;;;;;;;6251805;28;20250;-75
2023/10/14 06:37:00;;;;;;;97.55;81.82;;;;;;;;;;6248078;28;20968;-76
2023/10/14 06:40:02;;;;;;;64.40;43.60;;;;;;;;;;6253534;28;20095;-77
2023/10/14 06:43:06;;;;;;;78.75;59.17;;;;;;;;;;6250376;28;20056;-74
2023/10/14 06:46:11;;;;;;;89.38;78.25;;;;;;;;;;6250820;28;20053;-76
2023/10/14 06:49:16;;;;;;;73.53;64.03;;;;;;;;;;6255829;28;20455;-77
2023/10/14 06:52:18;;;;;;;68.80;58.28;;;;;;;;;;6257591;28;20106;-86
2023/10/14 06:55:22;;;;;;;69.80;62.25;;;;;;;;;;6257370;28;20053;-74
2023/10/14 06:58:23;;;;;;;62.83;52.35;;;;;;;;;;6254830;28;20045;-78
2023/10/14 07:01:25;;;;;;;63.85;49.05;;;;;;;;;;6250768;28;20075;-76
2023/10/14 07:04:28;;;;;;;50.67;40.65;;;;;;;;;;6250580;28;20140;-81
2023/10/14 07:07:29;;;;;;;49.15;39.30;;;;;;;;;;6258479;28;20065;-80
2023/10/14 07:10:33;;;;;;;45.75;35.00;;;;;;;;;;6256306;28;20053;-76
2023/10/14 07:13:38;;;;;;;42.35;32.53;;;;;;;;;;6261527;28;20108;-78
2023/10/14 07:16:40;;;;;;;51.58;40.90;;;;;;;;;;6254454;28;20410;-74
2023/10/14 07:19:43;;;;;;;33.33;27.30;;;;;;;;;;6254609;28;20058;-73
2023/10/14 07:22:44;;;;;;;23.08;13.85;;;;;;;;;;6248896;28;20339;-74
2023/10/14 07:25:47;;;;;;;19.45;11.85;;;;;;;;;;6257907;28;20116;-74
2023/10/14 07:28:51;;;;;;;19.40;13.45;;;;;;;;;;6232317;28;20064;-73
2023/10/14 07:31:53;;;;;;;16.92;11.30;;;;;;;;;;6227983;28;20052;-75
2023/10/14 07:34:56;;;;;;;14.13;9.82;;;;;;;;;;6226606;28;20049;-75
2023/10/14 07:37:58;;;;;;;19.48;11.65;;;;;;;;;;6229975;28;20054;-75
2023/10/14 07:41:01;;;;;;;21.90;13.43;;;;;;;;;;6224729;28;20334;-72
2023/10/14 07:44:09;;;;;;;15.95;9.85;;;;;;;;;;6232023;28;20174;-73
2023/10/14 07:47:12;;;;;;;14.52;10.68;;;;;;;;;;6229139;28;20072;-73
2023/10/14 07:50:15;;;;;;;15.25;10.15;;;;;;;;;;6226774;28;20086;-73
2023/10/14 07:53:22;;;;;;;17.10;12.18;;;;;;;;;;6231042;28;20064;-73
2023/10/14 07:56:24;;;;;;;16.70;9.90;;;;;;;;;;6224495;28;20161;-73
2023/10/14 07:59:25;;;;;;;14.23;10.35;;;;;;;;;;6223569;28;20263;-73
2023/10/14 08:02:27;;;;;;;14.80;10.60;;;;;;;;;;6226352;28;20048;-73
2023/10/14 08:05:30;;;;;;;30.50;13.43;;;;;;;;;;6237039;28;20053;-73
2023/10/14 08:08:42;;;;;;;14.38;9.43;;;;;;;;;;6225138;28;20071;-73
2023/10/14 08:11:43;;;;;;;18.80;12.20;;;;;;;;;;6227922;28;20113;-73
2023/10/14 08:14:45;;;;;;;13.52;9.70;;;;;;;;;;6228236;28;20065;-73
2023/10/14 08:17:49;;;;;;;13.70;9.10;;;;;;;;;;6232537;28;20045;-73
2023/10/14 08:20:53;;;;;;;14.27;8.15;;;;;;;;;;6247791;28;20050;-73
2023/10/14 08:23:58;;;;;;;13.02;8.10;;;;;;;;;;6234440;28;20117;-73
2023/10/14 08:26:59;;;;;;;13.20;8.20;;;;;;;;;;6236834;28;20073;-73
2023/10/14 08:30:01;;;;;;;11.00;7.57;;;;;;;;;;6225218;28;20056;-73
2023/10/14 08:33:03;;;;;;;12.32;8.02;;;;;;;;;;6227699;28;20282;-73
2023/10/14 08:36:07;;;;;;;11.90;7.97;;;;;;;;;;6225642;28;20056;-73
2023/10/14 08:39:09;;;;;;;16.25;8.98;;;;;;;;;;6226660;28;20047;-73
2023/10/14 08:42:10;;;;;;;13.88;8.27;;;;;;;;;;6228640;28;20048;-73
2023/10/14 08:45:12;;;;;;;13.52;8.65;;;;;;;;;;6229435;28;20054;-73
2023/10/14 08:48:16;;;;;;;13.57;9.52;;;;;;;;;;6225858;28;20046;-73
2023/10/14 08:51:18;;;;;;;;;;;;;;;;;;6228750;28;20270;-73
2023/10/14 08:54:23;;;;;;;18.35;9.80;;;;;;;;;;6227368;28;19932;-73
2023/10/14 08:57:25;;;;;;;13.70;9.50;;;;;;;;;;6220554;28;20335;-73
2023/10/14 09:00:27;;;;;;;13.23;10.27;;;;;;;;;;6228558;28;20048;-73
2023/10/14 09:03:30;;;;;;;13.85;9.57;;;;;;;;;;6229674;28;20053;-73
2023/10/14 09:06:34;;;;;;;13.65;10.07;;;;;;;;;;6224365;28;20088;-73
2023/10/14 09:09:35;;;;;;;;;;;;;;;;;;6227459;28;20050;-73
2023/10/14 09:12:37;;;;;;;16.02;10.30;;;;;;;;;;6225824;28;19925;-73
2023/10/14 09:15:40;;;;;;;13.88;10.20;;;;;;;;;;6225519;28;20062;-73
2023/10/14 09:18:57;;;;;;;13.40;10.10;;;;;;;;;;6224248;28;20389;-73
2023/10/14 09:22:01;;;;;;;16.48;10.38;;;;;;;;;;6224721;28;20046;-73
2023/10/14 09:25:03;;;;;;;16.98;11.07;;;;;;;;;;6236893;28;20143;-73
2023/10/14 09:28:06;;;;;;;14.52;9.88;;;;;;;;;;6230612;28;20106;-73
2023/10/14 09:31:10;;;;;;;11.63;8.85;;;;;;;;;;6226603;28;20113;-74
2023/10/14 09:34:22;;;;;;;14.82;8.13;;;;;;;;;;6224097;28;20069;-71
2023/10/14 09:37:25;;;;;;;14.00;8.13;;;;;;;;;;6222418;28;20242;-78
2023/10/14 09:40:27;;;;;;;12.73;8.63;;;;;;;;;;6229152;28;20599;-75
2023/10/14 09:43:29;;;;;;;13.75;7.63;;;;;;;;;;6229643;28;20056;-75
2023/10/14 09:46:32;;;;;;;11.00;7.67;;;;;;;;;;6227237;28;20062;-73
2023/10/14 09:49:35;;;;;;;12.52;7.75;;;;;;;;;;6227455;28;20657;-74
2023/10/14 09:52:40;;;;;;;10.50;6.68;;;;;;;;;;6228036;28;20096;-74
2023/10/14 09:55:43;;;;;;;12.00;8.55;;;;;;;;;;6224538;28;20050;-73
2023/10/14 09:58:47;;;;;;;11.88;7.20;;;;;;;;;;6226865;28;20109;-74
2023/10/14 10:01:48;;;;;;;9.70;7.28;;;;;;;;;;6255002;28;20049;-74
2023/10/14 10:04:51;;;;;;;10.40;6.57;;;;;;;;;;6225198;28;20057;-74
2023/10/14 10:08:05;;;;;;;12.90;6.40;;;;;;;;;;6226428;28;20060;-75
2023/10/14 10:11:08;;;;;;;9.43;6.70;;;;;;;;;;6221033;28;20045;-75
2023/10/14 10:14:12;;;;;;;10.45;6.03;;;;;;;;;;6224338;28;20054;-74
2023/10/14 10:17:16;;;;;;;10.70;6.40;;;;;;;;;;6225840;28;20046;-74
2023/10/14 10:20:25;;;;;;;9.07;6.00;;;;;;;;;;6219274;28;20207;-73
2023/10/14 10:23:30;;;;;;;10.55;6.53;;;;;;;;;;6228104;28;20073;-73
2023/10/14 10:26:57;;;;;;;8.70;5.55;;;;;;;;;;6233045;28;20058;-76
2023/10/14 10:30:04;;;;;;;10.05;6.57;;;;;;;;;;6234921;28;20061;-76
2023/10/14 10:33:11;;;;;;;11.10;6.28;;;;;;;;;;6245905;28;20049;-74
2023/10/14 10:36:13;;;;;;;9.40;6.00;;;;;;;;;;6245772;28;20064;-75
2023/10/14 10:39:19;;;;;;;13.02;5.68;;;;;;;;;;6246021;28;20110;-75
2023/10/14 10:42:21;;;;;;;9.75;5.70;;;;;;;;;;6250128;28;20392;-74
2023/10/14 10:45:24;;;;;;;16.38;5.82;;;;;;;;;;6248212;28;20045;-75
2023/10/14 10:48:26;;;;;;;10.68;6.35;;;;;;;;;;6246308;28;20045;-77
2023/10/14 10:51:31;;;;;;;10.03;5.97;;;;;;;;;;6248498;28;20454;-75
2023/10/14 10:54:34;;;;;;;12.27;6.82;;;;;;;;;;6246081;28;20462;-76
2023/10/14 10:57:36;;;;;;;17.45;6.50;;;;;;;;;;6248163;28;20061;-74
2023/10/14 11:00:38;;;;;;;14.00;6.85;;;;;;;;;;6246554;28;20046;-74
2023/10/14 11:03:45;;;;;;;14.30;7.22;;;;;;;;;;6243027;28;20121;-73
2023/10/14 11:06:47;;;;;;;12.70;6.70;;;;;;;;;;6248219;28;20441;-74
2023/10/14 11:09:50;;;;;;;14.15;7.03;;;;;;;;;;6248244;28;20104;-74
2023/10/14 11:12:54;;;;;;;11.73;6.55;;;;;;;;;;6242984;28;20104;-75
2023/10/14 11:15:56;;;;;;;10.23;6.70;;;;;;;;;;6249215;28;20073;-75
2023/10/14 11:18:59;;;;;;;15.02;6.38;;;;;;;;;;6249287;28;20053;-75
2023/10/14 11:22:02;;;;;;;14.10;6.97;;;;;;;;;;6255842;28;20061;-75
2023/10/14 11:25:07;;;;;;;12.98;7.20;;;;;;;;;;6253452;28;20045;-74
2023/10/14 11:28:09;;;;;;;11.60;6.63;;;;;;;;;;6256866;28;20061;-75
2023/10/14 11:31:10;;;;;;;11.95;6.75;;;;;;;;;;6248104;28;20105;-75
2023/10/14 11:34:12;;;;;;;10.50;6.68;;;;;;;;;;6256703;28;20360;-76
2023/10/14 11:37:15;;;;;;;11.85;6.22;;;;;;;;;;6256612;28;21574;-75
2023/10/14 11:40:19;;;;;;;;;;;;;;;;;;6257438;28;20249;-75
2023/10/14 11:43:21;;;;;;;10.38;5.78;;;;;;;;;;6254639;28;19924;-74
2023/10/14 11:46:23;;;;;;;10.65;6.03;;;;;;;;;;6254727;28;20061;-75
2023/10/14 11:49:24;;;;;;;8.63;6.13;;;;;;;;;;6255383;28;20282;-74
2023/10/14 11:52:26;;;;;;;12.73;6.10;;;;;;;;;;6251476;28;20322;-74
2023/10/14 11:55:30;;;;;;;12.70;6.40;;;;;;;;;;6253031;28;20056;-74
2023/10/14 11:58:32;;;;;;;13.68;6.95;;;;;;;;;;6255923;28;20353;-74
2023/10/14 12:01:35;;;;;;;9.63;6.00;;;;;;;;;;6254133;28;20345;-74
2023/10/14 12:04:38;;;;;;;10.73;5.63;;;;;;;;;;6252081;28;20054;-77
2023/10/14 12:07:40;;;;;;;11.88;6.07;;;;;;;;;;6255981;28;20053;-74
2023/10/14 12:10:45;;;;;;;13.15;5.43;;;;;;;;;;6247997;28;20099;-75
2023/10/14 12:13:48;;;;;;;9.15;5.72;;;;;;;;;;6253525;28;20048;-76
2023/10/14 12:16:50;;;;;;;10.10;5.50;;;;;;;;;;6251415;28;20045;-73
2023/10/14 12:19:51;;;;;;;12.73;5.97;;;;;;;;;;6216950;28;20057;-75
2023/10/14 12:22:53;;;;;;;10.88;5.47;;;;;;;;;;6228298;28;20227;-75
2023/10/14 12:25:56;;;;;;;16.35;6.28;;;;;;;;;;6229391;28;20045;-75
2023/10/14 12:29:07;;;;;;;9.52;5.00;;;;;;;;;;6247087;28;20053;-75
2023/10/14 12:32:12;;;;;;;8.25;5.47;;;;;;;;;;6235163;28;20061;-74
2023/10/14 12:35:17;;;;;;;8.52;4.97;;;;;;;;;;6229045;28;20065;-73
2023/10/14 12:38:21;;;;;;;7.05;4.45;;;;;;;;;;6224845;28;20156;-75
2023/10/14 12:41:24;;;;;;;8.20;4.63;;;;;;;;;;6235907;28;20138;-74
2023/10/14 12:44:27;;;;;;;8.05;4.80;;;;;;;;;;6230526;28;20049;-75
2023/10/14 12:47:29;;;;;;;11.02;3.95;;;;;;;;;;6226243;28;20081;-75
2023/10/14 12:50:33;;;;;;;11.23;5.00;;;;;;;;;;6226808;28;20072;-74
2023/10/14 12:53:34;;;;;;;7.78;4.82;;;;;;;;;;6228065;28;20059;-75
2023/10/14 12:56:39;;;;;;;10.15;5.13;;;;;;;;;;6235593;28;20057;-74
2023/10/14 12:59:41;;;;;;;10.35;5.38;;;;;;;;;;6236648;28;20276;-75
2023/10/14 13:02:42;;;;;;;12.70;5.00;;;;;;;;;;6244428;28;20092;-73
2023/10/14 13:05:46;;;;;;;5.83;3.93;;;;;;;;;;6241771;28;20840;-74
2023/10/14 13:08:48;;;;;;;10.38;4.50;;;;;;;;;;6251796;28;20455;-75
2023/10/14 13:11:54;;;;;;;11.45;4.50;;;;;;;;;;6246395;28;20048;-75
2023/10/14 13:14:57;;;;;;;8.07;4.03;;;;;;;;;;6252540;28;20045;-75
2023/10/14 13:18:00;;;;;;;11.30;4.47;;;;;;;;;;6254484;28;20409;-75
2023/10/14 13:21:02;;;;;;;10.55;4.22;;;;;;;;;;6252100;28;20049;-74
2023/10/14 13:24:05;;;;;;;6.80;4.15;;;;;;;;;;6249057;28;20073;-75
2023/10/14 13:27:08;;;;;;;7.93;4.13;;;;;;;;;;6248461;28;20053;-74
2023/10/14 13:30:15;;;;;;;10.77;4.88;;;;;;;;;;6255797;28;20049;-76
2023/10/14 13:33:17;;;;;;;5.32;4.35;;;;;;;;;;6255694;28;20113;-76
2023/10/14 13:36:20;;;;;;;9.18;4.78;;;;;;;;;;6248227;28;20053;-75
2023/10/14 13:39:21;;;;;;;;;;;;;;;;;;6253404;28;20204;-75
2023/10/14 13:42:25;;;;;;;7.78;4.57;;;;;;;;;;6248337;28;20101;-77
2023/10/14 13:45:29;;;;;;;10.68;4.45;;;;;;;;;;6251601;28;20068;-77
2023/10/14 13:48:31;;;;;;;8.80;4.45;;;;;;;;;;6252705;28;20291;-79
2023/10/14 13:51:33;;;;;;;13.25;4.78;;;;;;;;;;6246073;28;20053;-77
2023/10/14 13:54:34;;;;;;;11.20;3.85;;;;;;;;;;6255982;28;20120;-78
2023/10/14 13:57:37;;;;;;;9.00;4.05;;;;;;;;;;6248131;28;20062;-78
2023/10/14 14:00:40;;;;;;;8.98;4.25;;;;;;;;;;6252753;28;20721;-78
2023/10/14 14:03:42;;;;;;;7.03;3.72;;;;;;;;;;6247511;28;20049;-76
2023/10/14 14:06:43;;;;;;;9.38;3.83;;;;;;;;;;6250918;28;20046;-77
2023/10/14 14:09:46;;;;;;;7.40;4.10;;;;;;;;;;6251351;28;20065;-77
2023/10/14 14:12:53;;;;;;;7.35;4.28;;;;;;;;;;6250866;28;20056;-78
2023/10/14 14:15:55;;;;;;;8.63;3.85;;;;;;;;;;6253457;28;20049;-78
2023/10/14 14:19:00;;;;;;;7.00;3.78;;;;;;;;;;6252652;28;20056;-78
2023/10/14 14:22:03;;;;;;;11.25;4.05;;;;;;;;;;6242871;28;20075;-76
2023/10/14 14:25:06;;;;;;;7.70;3.80;;;;;;;;;;6250142;28;20072;-78
2023/10/14 14:28:09;;;;;;;7.55;3.90;;;;;;;;;;6252010;28;20099;-80
2023/10/14 14:31:12;;;;;;;6.90;3.85;;;;;;;;;;6251905;28;20438;-80
2023/10/14 14:34:14;;;;;;;10.07;4.22;;;;;;;;;;6249268;28;20250;-80
2023/10/14 14:37:16;;;;;;;12.35;4.60;;;;;;;;;;6246760;28;20072;-79
2023/10/14 14:40:23;;;;;;;10.43;4.35;;;;;;;;;;6249310;28;20049;-80
2023/10/14 14:43:26;;;;;;;8.10;4.10;;;;;;;;;;6247872;28;20099;-79
2023/10/14 14:46:29;;;;;;;8.02;4.72;;;;;;;;;;6251748;28;20055;-80
2023/10/14 14:49:30;;;;;;;;;;;;;;;;;;6250305;28;20107;-81
2023/10/14 14:52:32;;;;;;;8.20;3.53;;;;;;;;;;6252111;28;19940;-81
2023/10/14 14:55:41;;;;;;;7.55;4.47;;;;;;;;;;6252201;28;20575;-79
2023/10/14 14:58:44;;;;;;;11.15;4.30;;;;;;;;;;6248919;28;20109;-79
2023/10/14 15:01:46;;;;;;;8.40;4.35;;;;;;;;;;6247860;28;20057;-78
2023/10/14 15:04:48;;;;;;;7.07;4.78;;;;;;;;;;6249309;28;20049;-78
2023/10/14 15:07:50;;;;;;;11.30;4.67;;;;;;;;;;6251963;28;20245;-77
2023/10/14 15:10:54;;;;;;;10.02;4.57;;;;;;;;;;6255008;28;20179;-78
2023/10/14 15:13:57;;;;;;;7.03;4.75;;;;;;;;;;6258167;28;20045;-77
2023/10/14 15:16:59;;;;;;;5.82;4.47;;;;;;;;;;6253126;28;20058;-77
2023/10/14 15:20:00;;;;;;;10.13;4.80;;;;;;;;;;6249985;28;20064;-78
2023/10/14 15:23:02;;;;;;;9.57;4.27;;;;;;;;;;6250152;28;20041;-77
2023/10/14 15:26:07;;;;;;;36.43;23.17;;;;;;;;;;6257957;28;20117;-79
2023/10/14 15:29:12;;;;;;;6.68;4.40;;;;;;;;;;6257770;28;20464;-79
2023/10/14 15:32:14;;;;;;;12.43;5.38;;;;;;;;;;6243622;28;20060;-78
2023/10/14 15:35:20;;;;;;;9.45;5.45;;;;;;;;;;6229002;28;20080;-78
2023/10/14 15:38:21;;;;;;;9.18;4.50;;;;;;;;;;6241967;28;20231;-77
2023/10/14 15:41:25;;;;;;;13.40;5.18;;;;;;;;;;6236807;28;20234;-79
2023/10/14 15:44:29;;;;;;;7.47;4.38;;;;;;;;;;6255287;28;20042;-78
2023/10/14 15:47:32;;;;;;;12.70;4.70;;;;;;;;;;6254518;28;20196;-79
2023/10/14 15:50:33;;;;;;;;;;;;;;;;;;6251466;28;20056;-78
2023/10/14 15:53:35;;;;;;;9.68;4.93;;;;;;;;;;6252668;28;19941;-78
2023/10/14 15:56:38;;;;;;;13.52;5.50;;;;;;;;;;6250737;28;20059;-78
2023/10/14 15:59:41;;;;;;;;;;;;;;;;;;6248045;28;20385;-78
2023/10/14 16:02:45;;;;;;;11.27;5.13;;;;;;;;;;6251707;28;20141;-78
2023/10/14 16:05:47;;;;;;;7.13;4.70;;;;;;;;;;6252302;28;20334;-78
2023/10/14 16:08:51;;;;;;;9.18;4.18;;;;;;;;;;6252971;28;20215;-75
2023/10/14 16:11:54;;;;;;;11.50;5.38;;;;;;;;;;6255082;28;20249;-78
2023/10/14 16:14:57;;;;;;;13.15;5.47;;;;;;;;;;6250037;28;20113;-78
2023/10/14 16:17:59;;;;;;;;;;;;;;;;;;6247237;28;20057;-78
2023/10/14 16:21:01;;;;;;;14.18;6.20;;;;;;;;;;6248447;28;20063;-79
2023/10/14 16:24:03;;;;;;;8.85;5.18;;;;;;;;;;6248501;28;20238;-79
2023/10/14 16:27:05;;;;;;;9.30;5.78;;;;;;;;;;6256897;28;20056;-78
2023/10/14 16:30:14;;;;;;;7.85;5.22;;;;;;;;;;6253216;28;20075;-79
2023/10/14 16:33:16;;;;;;;16.40;5.90;;;;;;;;;;6251187;28;20326;-79
2023/10/14 16:36:17;;;;;;;11.57;6.05;;;;;;;;;;6252111;28;20061;-79
2023/10/14 16:39:19;;;;;;;11.40;5.55;;;;;;;;;;6249438;28;20057;-79
2023/10/14 16:42:24;;;;;;;12.27;6.25;;;;;;;;;;6251747;28;20056;-78
2023/10/14 16:45:28;;;;;;;11.25;6.50;;;;;;;;;;6257073;28;20053;-78
2023/10/14 16:48:30;;;;;;;12.88;6.32;;;;;;;;;;6255131;28;20242;-80
2023/10/14 16:51:32;;;;;;;16.65;5.95;;;;;;;;;;6252401;28;20107;-77
2023/10/14 16:54:37;;;;;;;13.90;6.50;;;;;;;;;;6252033;28;20050;-77
2023/10/14 16:57:43;;;;;;;15.80;5.95;;;;;;;;;;6247729;28;20258;-76
2023/10/14 17:00:48;;;;;;;10.35;5.63;;;;;;;;;;6248527;28;20119;-77
2023/10/14 17:03:51;;;;;;;10.88;6.50;;;;;;;;;;6254861;28;20058;-77
2023/10/14 17:06:53;;;;;;;10.93;6.80;;;;;;;;;;6250319;28;20053;-78
2023/10/14 17:09:57;;;;;;;9.00;5.95;;;;;;;;;;6242017;28;20353;-77
2023/10/14 17:13:01;;;;;;;12.60;6.22;;;;;;;;;;6256422;28;20054;-77
2023/10/14 17:16:04;;;;;;;;;;;;;;;;;;6247995;28;20053;-77
2023/10/14 17:19:06;;;;;;;12.13;5.90;;;;;;;;;;6248799;28;19916;-76
2023/10/14 17:22:08;;;;;;;12.80;6.43;;;;;;;;;;6252535;28;20052;-77
2023/10/14 17:25:10;;;;;;;14.15;7.85;;;;;;;;;;6254662;28;20051;-78
2023/10/14 17:28:13;;;;;;;12.07;6.75;;;;;;;;;;6252764;28;20253;-75
2023/10/14 17:31:18;;;;;;;10.43;6.13;;;;;;;;;;6252435;28;20114;-77
2023/10/14 17:34:21;;;;;;;15.05;6.30;;;;;;;;;;6247242;28;20045;-77
2023/10/14 17:37:24;;;;;;;10.27;6.53;;;;;;;;;;6246839;28;20050;-79
2023/10/14 17:40:27;;;;;;;10.10;5.28;;;;;;;;;;6247607;28;20062;-77
2023/10/14 17:43:29;;;;;;;;;;;;;;;;;;6259419;28;20061;-79
2023/10/14 17:46:34;;;;;;;16.25;6.43;;;;;;;;;;6253511;28;19929;-78
2023/10/14 17:49:35;;;;;;;11.68;6.25;;;;;;;;;;6250931;28;20060;-78
2023/10/14 17:52:39;;;;;;;8.73;5.70;;;;;;;;;;6243846;28;20057;-76
2023/10/14 17:55:44;;;;;;;12.60;6.03;;;;;;;;;;6243904;28;20092;-77
2023/10/14 17:58:47;;;;;;;8.63;5.60;;;;;;;;;;6253358;28;20143;-75
2023/10/14 18:01:50;;;;;;;14.05;6.75;;;;;;;;;;6251904;28;20159;-76
2023/10/14 18:04:52;;;;;;;13.23;6.68;;;;;;;;;;6254672;28;20112;-76
2023/10/14 18:07:54;;;;;;;11.50;5.90;;;;;;;;;;6250024;28;20057;-76
2023/10/14 18:10:57;;;;;;;14.68;6.47;;;;;;;;;;6249032;28;20055;-77